Date,TemperatureHighF,TemperatureAvgF,TemperatureLowF,DewpointHighF,DewpointAvgF,DewpointLowF,HumidityHigh,HumidityAvg,HumidityLow,PressureMaxIn,PressureMinIn,WindSpeedMaxMPH,WindSpeedAvgMPH,GustSpeedMaxMPH,PrecipitationSumIn
2013-1-1,43.1,39.0,35.3,38.1,35.1,32.0,89,86,81,29.91,29.27,25,11,25,0.01
2013-1-2,50.9,45.9,40.3,48.4,43.2,35.9,94,90,84,30.03,29.90,27,11,27,0.15
2013-1-3,51.6,50.2,48.2,48.5,46.7,44.3,91,88,83,30.39,30.03,33,12,33,0.00
2013-1-4,49.9,48.6,47.0,47.1,45.2,43.4,90,88,83,30.45,30.38,21,9,21,0.00
2013-1-5,50.5,48.3,46.1,46.7,44.5,42.4,90,87,81,30.43,30.24,25,8,25,0.06
2013-1-6,46.1,44.0,42.7,42.4,40.8,39.6,90,89,87,30.42,30.33,16,8,16,0.01
2013-1-7,48.0,47.4,46.7,45.8,45.0,44.1,93,91,89,30.16,29.97,16,4,16,0.22
2013-1-8,51.5,46.9,41.5,48.8,43.9,38.2,94,89,84,30.14,29.93,25,9,25,0.13
2013-1-9,44.9,41.6,39.2,40.9,38.0,35.8,92,87,84,30.13,30.03,20,11,20,0.01
2013-1-10,39.4,37.0,32.4,37.5,35.0,30.2,94,92,89,30.03,29.94,10,1,10,0.04
2013-1-11,40.8,37.8,33.1,38.7,35.6,30.8,94,92,88,30.00,29.94,6,1,6,0.01
2013-1-12,39.2,34.3,29.5,34.5,31.3,27.5,94,89,79,30.11,29.93,12,2,12,0.00
2013-1-13,36.2,34.2,31.9,34.1,31.4,28.8,92,90,87,30.12,29.95,20,3,20,0.06
2013-1-14,38.0,34.2,30.0,35.1,31.4,26.9,94,89,82,29.95,29.73,17,2,17,0.02
2013-1-15,36.6,32.5,26.5,32.8,29.3,23.3,91,88,83,29.91,29.80,10,2,10,0.00
2013-1-16,32.7,29.6,25.6,28.4,25.7,22.9,91,86,79,29.96,29.83,5,1,5,0.01
2013-1-17,34.8,32.3,31.3,28.1,27.2,24.7,87,81,71,29.98,29.78,20,3,20,0.00
2013-1-18,34.5,32.3,30.0,29.3,25.1,21.6,92,75,65,29.78,29.55,27,13,27,0.00
2013-1-19,37.4,32.9,29.1,31.5,28.7,25.0,90,84,75,29.72,29.57,18,8,18,0.01
2013-1-20,34.4,33.5,32.7,28.8,27.5,25.3,85,78,73,29.70,29.53,23,8,23,0.00
2013-1-21,34.9,34.0,33.1,31.6,30.2,26.8,91,86,73,29.53,29.46,36,18,36,0.13
2013-1-22,35.3,34.1,32.7,31.8,30.6,29.3,90,87,81,29.82,29.50,27,9,27,0.02
2013-1-23,35.9,33.6,30.7,31.7,30.2,27.8,90,87,83,29.95,29.82,12,3,12,0.09
2013-1-24,36.9,34.4,32.7,32.8,29.9,27.1,92,84,71,30.04,29.92,22,5,22,0.00
2013-1-25,34.9,33.5,31.9,32.2,29.7,26.3,93,86,73,29.93,29.37,23,6,23,0.34
2013-1-26,45.0,38.3,32.7,42.0,34.6,30.6,94,87,78,29.55,28.93,30,11,30,0.38
2013-1-27,46.5,40.8,36.7,43.5,37.1,33.4,92,87,79,29.19,28.75,36,17,36,0.42
2013-1-28,45.0,41.0,37.5,41.9,37.0,33.4,91,85,77,29.32,28.85,40,20,40,0.72
2013-1-29,50.7,44.8,42.4,48.7,40.3,35.7,93,84,71,29.31,28.92,40,17,40,0.36
2013-1-30,44.0,41.6,39.1,38.2,36.3,33.5,91,82,72,29.62,29.09,33,16,33,0.20
2013-1-31,43.0,40.2,36.9,39.0,36.6,34.3,93,87,82,29.63,29.18,33,12,33,0.59
2013-2-1,41.9,37.5,31.2,39.2,34.2,27.5,92,88,81,29.81,29.34,28,6,28,0.20
2013-2-2,40.7,34.0,28.7,31.2,28.3,25.0,92,80,60,30.17,29.81,20,4,20,0.00
2013-2-3,48.6,43.8,35.1,44.9,39.5,31.3,94,85,75,30.00,29.44,38,15,38,0.09
2013-2-4,47.4,37.1,32.7,44.9,33.6,28.3,91,87,79,29.56,29.30,33,14,33,0.32
2013-2-5,41.8,36.4,31.4,37.2,32.5,27.9,91,86,79,29.58,29.04,32,12,32,0.09
2013-2-6,40.0,36.2,32.0,33.1,28.9,25.3,85,75,65,30.12,29.58,16,4,16,0.00
2013-2-7,40.5,35.8,31.4,34.0,30.2,25.3,88,80,74,30.12,29.98,15,3,15,0.01
2013-2-8,43.4,37.7,32.7,36.5,33.2,30.1,91,84,69,30.16,30.05,14,3,14,0.08
2013-2-9,39.3,38.0,36.5,37.3,35.7,33.4,93,92,88,30.10,29.79,12,4,12,0.06
2013-2-10,37.8,36.5,35.2,34.9,33.3,31.2,91,88,83,29.79,29.39,22,10,22,0.09
2013-2-11,41.2,36.6,30.8,34.2,30.3,25.7,89,78,64,29.94,29.48,23,12,23,0.01
2013-2-12,38.0,35.0,30.8,30.6,28.4,26.0,83,77,69,30.08,29.94,14,5,14,0.01
2013-2-13,44.2,35.0,31.3,41.9,31.7,26.4,92,88,78,30.06,29.49,34,8,34,0.63
2013-2-14,47.1,43.4,41.8,41.9,39.5,37.7,91,86,79,29.80,29.52,24,12,24,0.03
2013-2-15,48.6,42.7,38.2,40.0,37.4,34.1,88,82,69,30.09,29.80,22,8,22,0.00
2013-2-16,46.9,41.6,37.1,42.1,38.1,33.2,92,87,83,30.10,30.07,15,3,15,0.00
2013-2-17,49.1,42.1,31.9,40.2,36.0,28.8,88,79,61,30.10,30.04,13,2,13,0.00
2013-2-18,44.6,33.9,27.7,36.8,29.9,25.4,100,85,71,30.11,30.07,6,0,6,0.01
2013-2-19,42.8,34.5,26.3,38.0,30.9,23.8,95,87,68,30.13,30.09,15,3,15,0.00
2013-2-20,41.7,38.4,29.0,37.4,33.5,24.5,92,83,72,30.30,30.13,17,6,17,0.00
2013-2-21,38.0,32.1,24.9,27.2,24.7,21.8,92,75,61,30.32,30.27,16,5,16,0.00
2013-2-22,36.6,34.2,32.2,27.0,24.4,21.5,77,67,62,30.32,30.27,13,3,13,0.00
2013-2-23,40.3,34.7,31.3,31.3,27.6,25.0,87,76,56,30.38,30.25,12,2,12,0.00
2013-2-24,42.8,36.3,32.5,34.9,31.8,29.1,89,84,69,30.48,30.38,17,1,17,0.01
2013-2-25,44.2,34.6,28.3,36.3,30.6,25.9,93,86,72,30.63,30.48,12,2,12,0.01
2013-2-26,45.3,37.2,32.3,37.1,33.1,30.0,93,85,67,30.70,30.62,17,3,17,0.00
2013-2-27,43.8,35.8,28.6,37.5,31.9,26.0,92,86,75,30.69,30.57,6,1,6,0.00
2013-2-28,46.5,37.3,28.3,40.0,33.9,26.0,94,88,76,30.58,30.50,4,0,4,0.01
2013-3-1,48.2,39.6,32.5,37.2,33.4,28.9,92,79,59,30.54,30.42,16,2,16,0.00
2013-3-2,53.0,42.9,31.4,41.9,36.9,28.3,92,80,65,30.42,30.23,19,3,19,0.00
2013-3-3,48.7,44.3,42.0,40.7,37.8,34.6,92,78,64,30.25,30.08,15,2,15,0.00
2013-3-4,46.2,41.2,33.7,34.6,33.4,29.5,85,74,61,30.08,29.74,12,2,12,0.00
2013-3-5,48.1,37.5,30.2,35.7,31.8,27.3,92,80,59,29.74,29.63,15,2,15,0.00
2013-3-6,41.1,39.2,36.8,36.6,34.9,32.8,90,85,81,29.72,29.66,21,9,21,0.02
2013-3-7,41.9,40.3,39.0,40.0,37.8,35.9,97,91,86,29.66,29.55,28,12,28,0.09
2013-3-8,39.7,38.7,37.6,36.7,35.8,35.1,92,89,85,29.72,29.56,29,17,29,0.05
2013-3-9,37.9,36.9,35.6,35.5,33.1,27.6,92,86,72,29.91,29.72,28,12,28,0.16
2013-3-10,37.2,33.1,27.2,31.8,27.6,23.5,89,80,66,30.12,29.91,30,8,30,0.02
2013-3-11,34.9,28.9,23.6,26.9,22.6,18.6,90,77,62,30.15,30.11,18,2,18,0.05
2013-3-12,44.8,33.3,23.0,31.5,25.1,18.2,83,72,54,30.14,29.90,12,2,12,0.00
2013-3-13,45.9,35.0,28.4,28.6,25.6,21.9,87,70,47,29.98,29.87,9,1,9,0.00
2013-3-14,44.1,36.5,27.1,38.0,31.4,21.6,88,82,74,29.98,29.58,97,10,97,0.02
2013-3-15,47.6,40.6,34.3,39.7,35.4,30.4,89,82,69,29.57,29.35,25,9,25,0.08
2013-3-16,36.5,33.8,29.9,34.5,31.5,27.3,93,91,86,29.38,29.19,97,16,97,0.45
2013-3-17,40.1,36.2,30.9,38.0,33.7,28.6,94,91,84,29.26,29.12,21,6,21,0.25
2013-3-18,38.8,35.9,32.1,36.9,33.4,30.0,94,90,85,29.54,29.26,34,13,34,0.15
2013-3-19,34.5,33.5,32.3,32.5,31.4,30.1,93,92,90,29.66,29.53,24,7,24,0.54
2013-3-20,38.3,34.7,30.7,33.5,30.5,27.1,92,85,75,30.05,29.66,20,10,20,0.03
2013-3-21,39.5,33.5,27.9,30.4,27.3,25.0,91,78,62,30.09,30.00,30,12,30,0.00
2013-3-22,35.3,33.9,31.7,29.6,28.4,26.8,90,80,72,30.03,29.95,40,23,40,0.02
2013-3-23,33.6,33.0,32.4,28.7,26.1,22.6,84,76,66,30.20,30.02,41,23,41,0.06
2013-3-24,35.7,33.9,32.7,26.6,24.7,22.6,73,69,61,30.29,30.19,36,21,36,0.02
2013-3-25,36.7,34.4,33.1,28.0,25.9,23.6,76,71,66,30.30,30.25,31,16,31,0.00
2013-3-26,37.3,33.4,28.2,31.1,27.0,22.3,89,77,65,30.25,30.15,97,30,97,0.04
2013-3-27,40.2,33.0,28.2,32.8,28.5,23.1,91,84,68,30.17,30.09,97,31,97,0.10
2013-3-28,38.5,34.1,31.4,31.2,28.2,25.4,92,79,62,30.11,30.04,97,35,97,0.22
2013-3-29,42.5,35.0,30.4,33.9,28.2,25.0,92,77,55,30.04,29.92,23,6,23,0.04
2013-3-30,40.7,33.9,26.8,30.7,26.4,23.3,89,75,53,30.02,29.95,12,3,12,0.00
2013-3-31,42.2,33.4,24.6,28.1,24.1,21.3,90,70,47,30.02,29.98,17,5,17,0.00
2013-4-1,42.4,34.7,27.5,27.3,24.3,21.8,83,66,53,30.09,30.00,25,9,25,0.00
2013-4-2,35.5,35.2,34.8,26.9,25.9,24.3,71,69,65,30.10,30.09,14,4,14,0.00
2013-4-4,44.4,40.9,38.5,33.8,32.6,31.0,82,72,59,30.24,30.22,21,5,21,0.00
2013-4-5,47.5,40.1,33.3,33.9,28.9,25.3,84,65,48,30.26,30.22,15,4,15,0.00
2013-4-6,51.4,38.8,27.7,34.4,29.2,23.0,88,70,46,30.27,30.18,20,5,20,0.00
2013-4-7,42.6,38.6,36.0,35.5,32.6,30.3,84,79,72,30.19,29.99,21,6,21,0.00
2013-4-8,43.4,38.3,34.8,32.3,29.1,23.8,83,70,53,29.99,29.75,29,11,29,0.00
2013-4-9,45.9,38.8,33.5,33.6,27.9,21.8,82,66,42,29.75,29.67,29,12,29,0.00
2013-4-10,44.3,38.7,33.7,36.9,34.0,30.0,92,83,74,29.71,29.59,22,7,22,0.02
2013-4-11,45.1,40.3,36.0,36.0,34.0,31.3,89,78,69,29.59,29.42,21,8,21,0.00
2013-4-12,45.7,40.1,36.0,38.6,35.2,31.1,89,83,72,29.64,29.39,97,17,97,0.05
2013-4-13,54.9,46.5,39.0,46.0,37.9,34.8,92,74,47,29.73,29.42,23,8,23,0.02
2013-4-14,56.3,52.0,48.3,48.5,46.1,43.6,90,81,67,29.46,29.35,92,28,92,0.50
2013-4-15,56.7,51.1,47.2,48.1,43.6,40.8,87,76,57,29.72,29.43,93,18,93,0.13
2013-4-16,51.6,47.7,43.9,44.6,40.6,35.6,85,76,60,29.82,29.34,43,22,43,0.13
2013-4-17,52.3,45.6,40.7,48.6,41.3,34.7,94,85,73,29.82,29.09,34,14,34,1.06
2013-4-18,51.4,46.8,43.1,44.3,41.2,37.3,91,81,68,29.90,29.06,40,14,40,0.20
2013-4-19,56.7,46.2,35.2,38.2,35.2,31.9,91,67,44,30.41,29.90,21,4,21,0.01
2013-4-20,56.1,47.6,36.8,40.0,36.7,32.3,90,67,49,30.41,30.11,31,12,31,0.00
2013-4-21,53.4,46.2,42.4,43.2,39.9,36.6,89,79,58,30.11,29.82,24,11,24,0.16
2013-4-22,55.9,46.9,39.5,48.0,40.5,35.6,88,79,62,29.84,29.56,33,14,33,0.01
2013-4-23,55.8,48.6,44.4,42.9,39.8,37.3,86,72,56,30.03,29.69,33,14,33,0.01
2013-4-24,52.2,47.2,44.8,48.3,43.6,39.1,94,87,68,30.06,29.86,18,4,18,0.46
2013-4-25,50.6,44.6,40.1,42.2,36.8,33.8,85,74,63,30.19,30.00,21,7,21,0.02
2013-4-26,52.7,43.6,37.6,40.1,35.0,32.1,84,72,46,30.01,29.82,21,8,21,0.06
2013-4-27,54.6,45.2,35.2,35.3,32.0,27.9,87,62,37,30.12,29.94,17,4,17,0.00
2013-4-28,52.8,45.2,39.0,42.5,37.5,32.3,89,75,58,29.93,29.58,34,14,34,0.03
2013-4-29,56.3,46.4,39.4,38.0,35.6,33.6,84,67,45,30.07,29.58,30,12,30,0.00
2013-4-30,57.7,47.1,35.0,36.8,31.9,24.1,89,59,28,30.28,30.07,23,6,23,0.00
2013-5-1,53.2,46.6,40.8,36.7,33.9,31.3,78,62,43,30.25,30.10,21,6,21,0.03
2013-5-2,55.6,45.6,33.5,44.0,36.0,29.3,89,70,43,30.25,29.97,25,8,25,0.03
2013-5-3,51.9,48.7,40.7,47.9,44.5,35.8,92,85,80,29.97,29.64,30,15,30,0.60
2013-5-4,49.8,45.0,36.7,41.2,37.3,31.8,92,75,52,29.87,29.70,31,12,31,0.00
2013-5-5,61.1,54.2,46.9,52.0,46.8,41.0,86,76,63,30.01,29.86,26,12,26,0.00
2013-5-6,59.3,52.5,47.2,49.9,46.4,42.3,85,80,71,30.04,29.97,22,10,22,0.00
2013-5-7,68.9,54.9,40.3,50.6,44.4,36.8,92,69,48,30.06,29.86,20,4,20,0.00
2013-5-8,55.9,52.5,46.8,50.0,45.8,40.8,89,78,69,29.57,29.46,33,12,33,0.02
2013-5-9,56.9,48.5,43.4,43.8,40.4,36.3,91,75,49,29.51,29.33,29,10,29,0.13
2013-5-10,57.6,48.4,41.0,46.6,42.5,38.6,92,81,60,29.61,29.37,22,7,22,0.05
2013-5-11,51.3,46.5,42.3,45.9,41.1,37.3,91,82,70,29.71,29.46,29,11,29,0.06
2013-5-12,51.9,47.3,40.8,47.8,41.9,36.3,90,81,66,29.77,29.55,23,11,23,0.08
2013-5-13,49.9,42.4,34.9,41.7,37.3,32.1,91,82,69,29.59,29.41,35,15,35,0.38
2013-5-14,52.9,44.6,39.7,42.9,38.4,35.6,88,79,59,29.41,29.33,30,14,30,0.10
2013-5-15,55.2,44.5,35.6,44.8,38.5,32.6,91,80,56,29.41,29.27,16,3,16,0.08
2013-5-16,56.3,46.8,37.8,41.1,37.3,33.8,88,71,50,29.69,29.37,20,7,20,0.00
2013-5-17,64.0,51.5,39.2,43.2,39.6,35.9,92,67,40,29.86,29.69,12,2,12,0.00
2013-5-18,53.8,50.5,47.8,51.8,47.4,41.1,93,89,72,29.84,29.70,27,6,27,0.76
2013-5-19,57.3,50.9,47.1,53.8,48.7,45.2,94,92,86,29.96,29.80,18,5,18,0.02
2013-5-20,71.3,60.8,53.4,60.2,54.7,49.3,92,81,64,30.01,29.89,21,4,21,0.01
2013-5-21,67.4,58.9,46.2,49.4,46.9,42.8,88,66,47,30.07,30.00,12,2,12,0.00
2013-5-22,62.3,52.5,42.9,44.2,38.3,33.4,83,60,34,30.07,30.00,20,5,20,0.00
2013-5-23,56.3,46.6,38.9,38.3,33.8,30.7,73,62,44,30.01,29.90,15,4,15,0.00
2013-5-24,60.7,50.0,43.3,40.9,37.1,32.1,79,62,39,30.20,29.91,22,6,22,0.00
2013-5-25,66.0,52.7,37.3,43.4,37.9,33.1,90,60,35,30.20,30.10,18,5,18,0.00
2013-5-26,64.3,53.6,42.3,48.8,42.8,36.0,84,68,53,30.11,29.74,20,6,20,0.00
2013-5-27,54.9,50.2,47.7,46.3,43.5,40.1,86,78,69,29.73,29.41,32,16,32,0.06
2013-5-28,57.3,50.5,45.5,46.9,43.6,40.7,95,78,64,29.79,29.50,16,5,16,0.04
2013-5-29,62.4,53.6,41.5,52.0,46.2,38.0,90,77,61,29.91,29.79,12,1,12,0.01
2013-5-30,66.5,58.0,52.2,51.6,47.7,42.7,79,69,56,30.05,29.89,12,3,12,0.00
2013-5-31,69.5,56.9,47.7,53.7,46.2,38.1,88,68,52,30.16,30.05,23,6,23,0.00
2013-6-1,60.7,52.6,43.8,48.7,40.8,37.1,82,65,48,30.29,30.16,22,7,22,0.00
2013-6-2,67.0,54.8,43.2,44.8,41.4,38.2,83,62,39,30.42,30.28,18,6,18,0.00
2013-6-3,71.1,59.3,47.2,55.8,49.7,41.8,85,71,54,30.48,30.42,10,2,10,0.00
2013-6-4,70.8,61.3,51.5,50.5,47.4,44.1,82,62,42,30.49,30.31,20,8,20,0.00
2013-6-5,67.0,56.2,50.5,52.5,48.1,43.8,87,75,55,30.31,30.15,18,6,18,0.00
2013-6-6,72.6,58.4,47.6,51.4,47.1,43.4,89,69,42,30.25,30.17,17,3,17,0.00
2013-6-7,66.4,55.5,45.7,51.4,46.4,41.6,90,72,57,30.33,30.25,18,6,18,0.00
2013-6-8,75.7,59.0,44.8,51.2,46.2,41.1,89,65,38,30.31,30.11,23,4,23,0.00
2013-6-9,67.2,55.2,49.7,53.2,47.8,44.8,86,77,58,30.13,29.99,18,7,18,0.01
2013-6-10,63.2,54.7,50.3,51.0,47.0,44.6,85,76,62,30.02,29.89,18,8,18,0.00
2013-6-11,61.7,54.3,47.3,53.1,48.9,43.3,90,82,65,29.90,29.66,16,6,16,0.10
2013-6-12,65.8,57.3,52.1,53.4,50.2,46.1,90,78,61,29.66,29.57,20,6,20,0.06
2013-6-13,64.6,55.8,47.7,48.6,44.4,41.6,86,67,48,29.76,29.54,25,6,25,0.00
2013-6-14,65.2,55.4,47.1,52.2,46.0,42.6,87,71,53,29.79,29.57,21,9,21,0.09
2013-6-15,58.2,51.0,47.3,48.2,45.6,41.5,92,82,59,29.56,29.39,28,10,28,0.15
2013-6-16,69.3,56.9,48.0,51.6,47.5,44.6,92,73,45,29.97,29.56,18,6,18,0.01
2013-6-17,70.3,58.5,49.3,54.6,50.4,45.9,91,75,48,30.05,29.97,13,4,13,0.00
2013-6-18,70.8,61.1,54.6,54.9,51.3,47.9,89,72,49,30.02,29.90,13,3,13,0.00
2013-6-19,69.9,59.2,51.5,49.7,46.8,43.8,81,65,44,30.01,29.94,21,6,21,0.00
2013-6-20,75.3,61.9,50.9,54.7,49.2,43.4,80,65,35,30.01,29.76,14,4,14,0.00
2013-6-21,66.2,61.5,57.0,55.2,51.2,44.6,86,70,54,29.78,29.58,17,4,17,0.00
2013-6-22,64.1,56.3,50.7,54.0,48.9,45.6,89,77,57,29.58,29.27,21,9,21,0.10
2013-6-23,63.0,56.1,49.5,52.9,48.2,44.2,90,75,59,29.92,29.35,18,5,18,0.02
2013-6-24,62.9,55.4,48.2,46.1,43.8,41.4,85,66,50,30.24,29.92,13,2,13,0.02
2013-6-25,62.7,55.6,45.3,49.7,45.4,39.4,83,69,53,30.36,30.24,14,3,14,0.00
2013-6-26,68.5,59.2,48.5,49.6,46.4,43.6,85,64,42,30.41,30.36,15,4,15,0.00
2013-6-27,58.9,54.5,50.3,54.4,49.2,42.7,92,82,74,30.40,30.11,16,6,16,0.10
2013-6-28,65.5,56.7,50.7,56.4,50.8,41.3,92,81,63,30.12,29.89,25,9,25,0.13
2013-6-29,59.0,54.4,49.0,52.4,47.0,43.0,86,76,65,30.13,30.06,21,8,21,0.00
2013-6-30,65.0,57.3,51.1,56.1,50.6,44.8,88,78,62,30.09,29.84,29,11,29,0.03
2013-7-1,64.5,55.8,48.3,48.2,44.6,40.3,87,68,48,29.89,29.82,22,7,22,0.02
2013-7-2,57.3,53.3,48.6,51.5,47.7,42.7,88,81,68,29.86,29.43,27,7,27,0.07
2013-7-3,63.5,58.2,54.0,53.2,51.4,49.6,92,79,64,29.79,29.43,17,6,17,0.01
2013-7-4,63.7,58.7,53.8,59.0,51.4,46.3,93,77,61,30.12,29.69,29,11,29,0.32
2013-7-5,69.3,59.8,52.6,54.0,50.4,44.4,86,72,55,30.35,30.12,24,7,24,0.00
2013-7-6,74.5,63.5,50.7,57.6,51.9,46.5,89,67,45,30.40,30.28,20,5,20,0.00
2013-7-7,78.7,67.1,57.3,56.8,54.3,49.8,87,66,39,30.59,30.41,14,6,14,0.00
2013-7-8,81.2,66.1,55.1,62.4,56.8,51.6,89,74,50,30.62,30.45,13,3,13,0.00
2013-7-9,85.4,71.8,58.1,63.5,59.0,52.3,86,66,45,30.46,30.29,21,5,21,0.00
2013-7-10,73.4,62.4,55.3,58.1,53.7,49.7,82,74,57,30.40,30.32,17,7,17,0.00
2013-7-11,82.1,66.4,55.0,64.7,56.8,49.6,83,72,53,30.35,30.22,10,2,10,0.00
2013-7-12,82.9,71.1,58.0,63.6,58.7,54.1,91,67,45,30.24,30.18,17,4,17,0.00
2013-7-13,79.3,66.7,57.5,60.4,56.6,52.1,84,71,49,30.31,30.21,18,8,18,0.00
2013-7-14,73.0,63.2,55.8,53.9,51.1,47.2,85,66,48,30.30,30.16,20,6,20,0.00
2013-7-15,68.7,61.7,55.1,55.5,52.1,47.6,82,71,61,30.19,30.15,22,8,22,0.00
2013-7-16,74.0,66.0,60.1,59.8,56.2,52.9,86,71,55,30.23,30.16,18,6,18,0.00
2013-7-17,75.6,67.7,58.0,58.8,55.1,52.2,82,65,48,30.32,30.22,17,5,17,0.00
2013-7-18,83.4,71.1,60.1,64.8,59.3,54.7,84,68,50,30.35,30.31,16,4,16,0.00
2013-7-19,79.3,67.6,55.7,58.9,55.4,51.7,89,67,48,30.39,30.32,18,6,18,0.00
2013-7-20,77.2,64.1,57.3,59.7,55.4,52.3,87,74,54,30.35,30.26,20,8,20,0.00
2013-7-21,71.3,61.2,56.8,56.2,53.1,50.8,85,75,57,30.29,30.13,23,10,23,0.00
2013-7-22,66.0,60.6,58.1,58.1,55.5,54.1,88,83,74,30.14,29.98,18,8,18,0.00
2013-7-23,69.4,62.4,59.4,63.9,58.7,55.5,93,88,78,29.99,29.84,16,6,16,0.17
2013-7-24,75.9,65.3,57.3,63.4,58.8,54.6,95,81,54,29.89,29.83,17,4,17,0.07
2013-7-25,65.6,61.0,57.7,60.8,57.6,53.7,93,89,82,29.88,29.78,15,4,15,0.14
2013-7-26,68.2,60.3,56.4,62.9,56.9,52.6,93,89,72,29.83,29.80,23,2,23,0.89
2013-7-27,75.4,62.2,51.8,59.2,54.8,49.4,95,79,45,29.84,29.65,18,3,18,0.13
2013-7-28,61.4,58.9,56.3,59.1,56.6,53.4,95,92,88,29.64,29.52,12,2,12,2.13
2013-7-29,66.9,58.8,53.2,60.8,55.7,50.7,94,90,75,29.72,29.60,17,3,17,0.75
2013-7-30,69.5,59.8,51.9,55.4,51.9,49.1,93,77,51,29.77,29.71,21,6,21,0.01
2013-7-31,68.5,60.6,52.5,54.4,51.7,49.0,90,74,52,29.86,29.75,15,5,15,0.05
2013-8-1,70.0,63.2,57.0,61.7,58.7,54.7,95,86,73,29.75,29.60,32,6,32,0.42
2013-8-2,73.0,65.7,59.5,59.6,55.7,52.1,88,71,52,29.61,29.52,28,10,28,0.00
2013-8-3,65.7,59.9,55.4,52.8,50.5,47.5,85,72,52,29.83,29.55,33,12,33,0.03
2013-8-4,69.6,60.7,50.2,54.7,50.7,46.4,92,71,49,29.88,29.83,22,6,22,0.02
2013-8-5,68.4,58.6,51.8,55.8,50.8,47.1,88,76,58,29.87,29.73,15,2,15,0.00
2013-8-6,65.0,57.8,49.8,51.8,48.2,44.4,82,71,56,29.97,29.85,16,5,16,0.00
2013-8-7,68.6,59.5,52.4,55.6,51.4,47.7,85,75,56,30.05,29.95,12,2,12,0.00
2013-8-8,71.0,59.5,51.5,56.9,52.1,48.0,91,77,55,30.04,29.90,21,3,21,0.05
2013-8-9,69.0,60.1,53.6,58.0,51.9,45.9,93,75,58,30.09,29.85,18,5,18,0.04
2013-8-10,63.8,57.7,52.6,51.6,48.7,45.8,83,72,59,30.10,29.96,19,6,19,0.00
2013-8-11,65.3,56.9,51.9,53.1,49.1,46.9,92,76,56,29.96,29.83,22,8,22,0.06
2013-8-12,67.5,58.3,51.1,52.2,48.4,46.1,87,71,50,30.01,29.82,21,6,21,0.00
2013-8-13,66.0,57.4,49.0,49.5,47.0,44.4,85,69,50,30.13,30.01,18,6,18,0.00
2013-8-14,69.5,60.5,52.7,56.4,52.8,46.0,88,76,58,30.13,29.91,20,5,20,0.02
2013-8-15,67.3,62.1,58.9,60.7,58.5,56.2,92,88,77,29.92,29.72,18,6,18,0.20
2013-8-16,69.6,60.4,52.5,57.9,53.0,48.8,92,77,57,29.86,29.72,22,7,22,0.01
2013-8-17,67.9,58.8,53.1,60.2,53.2,47.6,91,82,64,29.83,29.37,30,11,30,0.22
2013-8-18,62.6,56.7,52.4,51.4,48.5,46.3,86,75,60,29.78,29.43,27,10,27,0.01
2013-8-19,63.7,57.2,52.3,53.4,49.2,46.9,87,75,58,30.15,29.78,24,8,24,0.00
2013-8-20,66.4,58.8,53.7,56.3,52.2,48.6,89,79,64,30.22,30.12,15,5,15,0.06
2013-8-21,69.1,62.2,57.3,59.3,56.2,53.5,91,81,68,30.12,30.01,16,5,16,0.04
2013-8-22,63.9,59.0,55.8,57.9,55.1,53.2,92,87,80,30.11,30.00,20,7,20,0.00
2013-8-23,67.2,59.8,53.4,60.8,55.6,51.2,94,86,74,30.00,29.85,14,3,14,0.02
2013-8-24,66.8,59.3,56.0,55.9,52.8,49.0,91,80,64,29.95,29.88,12,2,12,0.00
2013-8-25,71.0,60.3,49.3,59.0,52.9,45.3,89,77,64,30.15,29.95,12,2,12,0.00
2013-8-26,71.4,60.9,52.5,59.4,54.7,49.5,92,81,64,30.17,30.07,13,2,13,0.00
2013-8-27,67.3,59.2,52.3,58.6,53.3,48.3,88,81,70,30.20,30.06,13,4,13,0.00
2013-8-28,64.8,57.6,52.4,54.2,50.3,44.7,88,77,62,30.21,30.07,17,6,17,0.00
2013-8-29,63.3,58.1,52.2,56.8,52.6,44.7,89,82,71,30.07,29.98,19,7,19,0.01
2013-8-30,65.4,58.1,50.4,59.0,52.3,41.7,90,81,71,30.06,29.81,23,8,23,0.01
2013-8-31,63.4,54.6,48.6,48.2,43.6,40.3,82,67,47,30.27,30.06,23,9,23,0.00
2013-9-1,57.8,55.2,52.2,53.5,49.0,45.7,88,80,72,30.25,30.09,29,12,29,0.00
2013-9-2,68.0,61.7,57.0,58.5,55.9,53.3,88,82,71,30.23,30.08,28,10,28,0.00
2013-9-3,70.8,62.5,57.0,58.8,55.3,51.2,91,78,57,30.24,30.17,24,7,24,0.00
2013-9-4,69.4,59.8,52.3,53.5,50.7,48.1,90,73,52,30.17,29.89,23,7,23,0.00
2013-9-5,66.5,56.8,47.0,50.7,45.6,39.4,85,68,44,29.91,29.85,15,3,15,0.00
2013-9-6,57.3,49.3,44.9,48.2,44.5,39.1,92,84,66,29.93,29.88,12,1,12,0.61
2013-9-7,60.4,51.2,46.2,52.1,46.1,42.4,94,83,58,29.91,29.73,21,7,21,0.32
2013-9-8,59.7,50.7,40.8,48.1,44.1,38.1,93,79,61,29.97,29.91,14,3,14,0.01
2013-9-9,63.2,52.6,47.9,51.3,47.1,44.3,92,82,60,30.16,29.94,7,0,7,0.00
2013-9-10,63.7,54.5,47.0,50.1,46.4,43.0,87,75,59,30.23,30.15,13,2,13,0.00
2013-9-11,59.1,54.6,49.7,56.1,51.3,45.2,93,89,82,30.22,30.05,14,3,14,0.45
2013-9-12,65.5,57.7,52.7,57.8,53.9,49.5,93,87,70,30.07,29.85,20,4,20,0.06
2013-9-13,52.7,50.4,47.5,49.4,46.5,44.6,91,87,78,30.09,29.95,14,2,14,0.01
2013-9-14,62.0,50.0,40.9,46.8,43.4,38.5,93,79,55,30.05,29.90,13,2,13,0.01
2013-9-15,57.2,49.9,41.9,54.9,45.3,38.0,92,84,69,29.90,29.17,31,14,31,0.59
2013-9-16,54.3,46.6,40.3,45.8,41.2,36.9,92,82,70,29.32,29.25,23,10,23,0.06
2013-9-17,56.0,48.8,45.5,47.1,42.2,39.9,84,78,68,29.37,29.26,22,9,22,0.00
2013-9-18,56.8,49.1,43.6,45.7,42.3,39.5,87,78,62,29.71,29.37,26,10,26,0.00
2013-9-19,51.7,48.0,45.4,49.7,45.3,41.5,94,90,85,29.75,29.50,18,4,18,0.37
2013-9-20,59.9,52.3,45.1,49.8,46.3,42.6,94,81,63,30.02,29.75,21,8,21,0.01
2013-9-21,61.1,55.6,49.9,56.9,51.2,45.8,89,85,80,30.08,30.00,22,6,22,0.00
2013-9-22,67.5,61.7,57.1,58.1,55.5,53.1,88,80,67,30.27,30.08,23,9,23,0.00
2013-9-23,64.9,58.6,51.5,58.1,54.5,48.7,93,87,78,30.27,30.10,14,2,14,0.00
2013-9-24,59.1,56.8,54.7,56.0,54.1,52.3,92,90,87,30.10,29.95,14,4,14,0.01
2013-9-25,54.8,52.5,47.7,52.5,49.1,43.3,92,88,80,30.04,29.89,16,6,16,0.02
2013-9-26,56.2,50.2,42.5,49.0,45.2,39.8,93,83,70,30.11,30.04,13,2,13,0.02
2013-9-27,57.4,53.9,51.0,55.0,51.5,48.6,94,91,88,30.05,29.92,5,0,5,0.03
2013-9-28,64.7,55.3,49.1,56.3,50.7,46.9,94,85,67,29.92,29.83,17,2,17,0.01
2013-9-29,62.4,52.9,46.2,50.7,46.6,43.0,92,80,63,29.92,29.88,20,8,20,0.00
2013-9-30,59.1,53.7,49.8,49.3,46.8,45.6,87,78,66,29.91,29.81,23,10,23,0.00
2013-10-1,60.0,53.5,49.8,48.6,45.6,43.3,83,75,60,29.90,29.81,22,11,22,0.00
2013-10-2,57.3,54.5,52.4,53.6,50.0,46.0,92,85,76,29.83,29.74,18,7,18,0.40
2013-10-3,64.2,57.5,54.5,60.9,55.2,52.2,94,92,83,29.76,29.52,17,5,17,1.24
2013-10-4,59.4,55.7,53.1,57.6,53.5,50.1,95,92,87,29.81,29.52,17,3,17,0.23
2013-10-5,58.3,54.3,50.9,51.5,49.6,47.5,92,84,72,30.08,29.81,20,6,20,0.00
2013-10-6,60.4,57.6,53.1,57.2,54.1,50.2,93,88,80,30.08,30.01,16,6,16,0.03
2013-10-7,65.7,60.6,57.3,57.6,55.7,54.0,92,84,73,30.06,29.96,23,10,23,0.02
2013-10-8,59.6,55.2,50.4,56.1,50.7,44.1,92,85,76,30.14,29.95,24,10,24,0.07
2013-10-9,51.9,47.9,42.0,45.9,40.2,31.3,90,75,57,30.15,29.91,25,8,25,0.02
2013-10-10,51.8,44.6,40.2,39.0,35.9,31.0,83,72,59,30.43,30.15,14,2,14,0.00
2013-10-11,51.2,45.4,39.1,43.1,38.8,33.6,83,78,70,30.50,30.43,15,4,15,0.00
2013-10-12,55.6,49.4,46.0,46.5,43.6,40.8,87,80,67,30.47,30.27,19,5,19,0.00
2013-10-13,53.6,48.9,45.3,47.7,44.7,41.3,92,86,75,30.27,30.02,18,4,18,0.12
2013-10-14,51.4,48.7,46.0,49.2,46.3,43.8,94,91,84,30.03,29.92,14,3,14,0.06
2013-10-15,53.5,48.6,45.7,47.9,45.4,43.4,93,89,79,29.99,29.90,12,2,12,0.00
2013-10-16,50.9,45.8,38.7,47.1,43.1,36.3,98,90,84,29.98,29.57,20,4,20,0.54
2013-10-17,49.9,47.3,45.1,48.2,45.6,43.2,94,93,92,29.96,29.62,10,2,10,0.32
2013-10-18,51.2,48.6,45.1,49.5,46.3,42.9,98,92,86,29.99,29.67,18,7,18,0.26
2013-10-19,54.9,52.1,50.2,53.4,50.3,48.3,95,94,93,29.66,29.44,12,3,12,0.90
2013-10-20,56.3,51.2,47.2,53.7,49.2,45.3,95,93,88,29.46,29.39,15,4,15,0.20
2013-10-21,54.1,51.6,50.0,50.6,49.0,47.2,94,91,85,29.50,29.25,15,5,15,0.43
2013-10-22,57.2,54.9,51.6,54.8,52.3,49.9,95,91,84,29.25,29.07,18,5,18,0.76
2013-10-23,55.4,50.6,44.1,52.3,46.9,39.6,93,87,77,29.55,28.97,26,8,26,0.27
2013-10-24,52.7,46.9,43.3,45.9,42.3,39.4,90,84,74,29.88,29.55,20,5,20,0.01
2013-10-25,57.0,51.0,44.7,53.4,47.9,41.6,95,89,82,29.83,29.29,21,7,21,0.25
2013-10-26,54.1,50.5,45.1,50.9,46.2,41.9,91,85,74,29.42,29.12,27,8,27,0.11
2013-10-27,51.4,47.6,45.0,46.5,44.0,41.5,92,87,79,29.15,28.81,32,13,32,0.68
2013-10-28,51.7,46.9,44.4,46.1,43.4,40.2,92,88,78,29.31,28.86,25,10,25,0.03
2013-10-29,50.2,44.9,41.4,42.5,39.5,37.2,89,81,72,29.85,29.32,22,10,22,0.00
2013-10-30,52.5,46.0,40.7,49.2,42.0,37.1,91,86,76,29.89,29.56,26,10,26,0.19
2013-10-31,51.9,46.0,42.7,44.9,41.3,39.0,92,84,71,29.79,29.58,30,13,30,0.20
2013-11-1,49.9,44.7,41.1,42.2,39.7,37.6,88,82,73,29.59,29.53,27,12,27,0.01
2013-11-2,43.3,38.9,35.2,41.1,36.2,32.8,92,90,87,29.53,28.83,20,4,20,0.40
2013-11-3,48.0,42.0,37.9,39.0,36.6,33.7,92,81,67,29.26,28.92,27,10,27,0.29
2013-11-4,47.6,38.4,31.2,38.5,33.5,28.2,90,83,69,29.35,29.19,16,4,16,0.01
2013-11-5,39.7,34.8,29.1,37.6,32.3,26.5,94,91,84,29.31,29.15,19,2,19,0.05
2013-11-6,44.1,39.9,37.1,40.9,37.0,33.9,93,89,86,29.34,29.21,20,5,20,0.04
2013-11-7,45.9,42.8,35.9,41.3,38.5,33.8,92,85,74,29.45,29.33,31,13,31,0.31
2013-11-8,47.7,42.5,37.2,41.4,38.5,34.0,92,86,76,29.53,29.43,20,9,20,0.01
2013-11-9,40.9,36.9,32.3,37.6,33.9,29.7,92,89,85,29.63,29.48,15,4,15,0.05
2013-11-10,45.4,36.4,32.0,37.6,32.3,28.8,91,85,71,30.09,29.65,15,3,15,0.01
2013-11-11,52.2,45.0,34.1,50.8,42.1,31.7,95,89,79,30.01,29.78,23,6,23,0.11
2013-11-12,48.2,43.6,39.4,43.9,39.2,36.6,91,85,72,30.34,30.00,22,9,22,0.06
2013-11-13,47.2,44.8,42.0,43.6,40.3,38.2,91,84,74,30.34,29.78,33,13,33,0.17
2013-11-14,46.7,42.3,39.4,42.1,35.3,31.4,89,76,63,30.45,29.76,28,8,28,0.06
2013-11-15,49.8,47.1,41.9,46.2,42.6,35.7,90,84,77,30.45,30.31,26,11,26,0.00
2013-11-16,51.8,48.9,43.7,47.9,44.7,37.9,91,85,79,30.33,30.17,30,12,30,0.02
2013-11-17,43.6,38.8,33.0,39.5,36.0,30.5,93,90,81,30.34,29.90,16,1,16,0.07
2013-11-18,43.9,38.8,33.9,40.9,35.5,30.6,94,88,75,29.90,29.74,20,6,20,0.01
2013-11-19,40.7,34.2,29.3,37.9,28.9,24.7,92,81,65,30.00,29.56,31,8,31,0.22
2013-11-20,42.5,39.2,34.9,39.9,34.2,29.9,91,82,72,29.80,29.36,28,7,28,0.24
2013-11-21,40.5,35.2,27.8,31.4,28.9,24.3,87,78,67,30.15,29.80,9,1,9,0.00
2013-11-22,36.5,29.3,24.9,31.3,25.8,22.1,92,87,77,30.26,30.15,4,0,4,0.01
2013-11-23,41.1,34.0,28.0,37.5,31.2,25.4,93,89,85,30.41,30.26,5,0,5,0.00
2013-11-24,38.5,34.1,29.7,36.4,31.9,27.2,94,92,90,30.67,30.41,4,0,4,0.00
2013-11-25,35.4,31.3,26.3,33.5,29.2,24.0,93,92,91,30.70,30.66,4,0,4,0.01
2013-11-26,49.4,45.2,35.4,46.5,42.7,33.6,94,91,88,30.67,30.48,22,12,22,0.06
2013-11-27,51.9,49.3,47.5,47.1,45.6,44.1,92,87,81,30.51,30.43,23,13,23,0.00
2013-11-28,47.5,40.5,34.7,44.1,37.3,32.1,93,88,83,30.59,30.31,20,4,20,0.01
2013-11-29,46.0,41.8,37.6,43.5,36.8,31.3,92,83,72,30.31,30.06,32,9,32,0.09
2013-11-30,46.0,41.4,36.1,42.3,36.7,30.8,89,83,76,30.37,30.26,23,8,23,0.00
2013-12-1,49.2,44.0,38.4,43.8,40.6,35.3,92,88,80,30.56,30.34,21,6,21,0.00
2013-12-2,46.1,43.8,38.5,43.6,39.7,36.1,93,85,79,30.55,30.30,23,7,23,0.00
2013-12-3,48.2,45.9,38.3,44.8,42.4,35.1,91,87,84,30.30,30.07,23,11,23,0.09
2013-12-4,42.2,39.1,36.1,38.8,34.9,32.3,89,85,78,30.25,30.02,29,11,29,0.05
2013-12-5,45.7,38.0,31.5,43.2,33.8,24.8,92,85,73,30.10,29.38,56,16,56,12.13
2013-12-6,35.9,33.3,31.0,30.1,27.2,24.3,89,78,72,30.29,30.10,17,3,17,0.00
2013-12-7,47.5,38.9,32.5,44.0,36.4,29.8,95,91,86,30.20,29.90,27,7,27,0.07
2013-12-8,52.2,49.5,46.8,49.4,46.7,43.1,93,90,85,29.92,29.80,34,18,34,0.28
2013-12-9,51.9,49.7,46.5,49.3,46.0,41.7,92,87,78,30.16,29.90,31,12,31,0.06
2013-12-10,53.1,49.6,46.9,47.1,44.1,39.6,87,81,75,30.17,30.10,29,12,29,0.01
2013-12-11,51.4,47.6,41.8,47.7,42.7,36.2,87,83,72,30.21,29.98,23,7,23,0.00
2013-12-12,53.1,50.2,45.1,50.1,46.9,37.4,93,88,71,29.98,29.88,21,11,21,0.47
2013-12-13,53.9,49.7,42.0,49.9,45.2,36.6,89,85,79,29.89,29.66,33,13,33,0.05
2013-12-14,50.4,45.2,38.9,47.9,40.7,32.9,92,84,78,29.87,29.39,43,18,43,0.70
2013-12-15,48.7,42.9,39.5,44.4,39.2,33.9,92,87,77,29.82,29.48,35,12,35,0.46
2013-12-16,47.1,41.2,37.8,42.8,36.8,34.1,92,84,77,29.92,29.47,32,12,32,0.19
2013-12-17,43.6,40.1,36.8,37.3,34.9,32.8,87,82,75,30.05,29.69,28,12,28,0.02
2013-12-18,51.2,46.1,41.5,46.7,41.3,34.2,91,83,69,29.70,28.70,50,19,50,0.14
2013-12-19,43.7,37.8,35.1,35.5,33.1,31.3,90,83,71,29.45,28.77,39,19,39,0.27
2013-12-20,50.5,42.8,36.7,46.3,38.9,32.7,92,86,80,29.69,29.31,39,18,39,0.56
2013-12-21,46.9,43.7,38.2,41.6,38.2,34.5,89,81,75,29.45,29.22,37,19,37,0.20
2013-12-22,40.5,37.8,34.5,35.6,33.7,31.6,90,85,79,29.48,29.25,33,17,33,0.29
2013-12-23,47.9,40.5,35.1,44.5,36.7,31.0,93,86,76,29.48,28.25,32,15,32,0.26
2013-12-24,47.4,39.7,37.3,43.6,33.2,28.7,88,77,62,28.42,28.21,45,27,45,0.27
2013-12-25,42.6,40.3,38.9,36.9,35.3,33.6,88,82,75,29.03,28.41,46,19,46,0.44
2013-12-26,41.4,38.5,35.8,35.9,34.1,32.1,90,84,78,29.25,28.59,33,9,33,0.00
2013-12-27,44.4,42.4,38.7,41.4,38.8,34.1,92,87,80,28.70,28.12,45,24,45,0.68
2013-12-28,41.2,40.0,38.7,37.6,36.0,34.0,92,86,80,29.45,28.69,37,15,37,0.09
2013-12-29,44.8,40.6,38.4,41.5,36.8,33.6,92,86,81,29.76,29.43,29,11,29,0.14
2013-12-30,46.8,41.7,36.3,44.0,39.2,33.6,93,91,88,29.57,29.26,33,8,33,1.03
2013-12-31,44.2,40.6,35.1,40.0,36.5,32.4,93,85,81,29.56,29.20,25,10,25,0.03
2014-1-1,44.5,39.9,37.0,42.6,36.8,33.6,93,89,85,29.25,28.63,24,9,24,0.18
2014-1-2,43.8,41.7,39.9,41.0,38.0,35.6,91,87,81,29.10,28.63,30,12,30,0.07